sensor_id;sensor_type;location;lat;lon;timestamp;P1;durP1;ratioP1;P2;durP2;ratioP2
49998;SDS011;68071;45.062;7.356;2023-07-29T00:01:24;7.80;;;4.47;;
49998;SDS011;68071;45.062;7.356;2023-07-29T00:04:28;5.30;;;4.30;;
49998;SDS011;68071;45.062;7.356;2023-07-29T00:07:32;6.57;;;4.55;;
49998;SDS011;68071;45.062;7.356;2023-07-29T00:10:36;5.13;;;4.32;;
49998;SDS011;68071;45.062;7.356;2023-07-29T00:13:41;4.07;;;3.60;;
49998;SDS011;68071;45.062;7.356;2023-07-29T00:16:45;5.10;;;4.00;;
49998;SDS011;68071;45.062;7.356;2023-07-29T00:19:49;5.63;;;4.03;;
49998;SDS011;68071;45.062;7.356;2023-07-29T00:22:53;5.88;;;4.55;;
49998;SDS011;68071;45.062;7.356;2023-07-29T00:25:58;6.85;;;4.35;;
49998;SDS011;68071;45.062;7.356;2023-07-29T00:29:02;5.47;;;4.00;;
49998;SDS011;68071;45.062;7.356;2023-07-29T00:32:06;4.20;;;3.85;;
49998;SDS011;68071;45.062;7.356;2023-07-29T00:35:10;6.05;;;4.00;;
49998;SDS011;68071;45.062;7.356;2023-07-29T00:38:14;6.45;;;4.10;;
49998;SDS011;68071;45.062;7.356;2023-07-29T00:41:18;5.22;;;3.95;;
49998;SDS011;68071;45.062;7.356;2023-07-29T00:44:25;4.57;;;3.72;;
49998;SDS011;68071;45.062;7.356;2023-07-29T00:47:29;5.70;;;3.65;;
49998;SDS011;68071;45.062;7.356;2023-07-29T00:50:33;6.25;;;4.10;;
49998;SDS011;68071;45.062;7.356;2023-07-29T00:53:38;6.38;;;4.10;;
49998;SDS011;68071;45.062;7.356;2023-07-29T00:56:44;4.22;;;3.83;;
49998;SDS011;68071;45.062;7.356;2023-07-29T00:59:49;4.68;;;3.80;;
49998;SDS011;68071;45.062;7.356;2023-07-29T01:02:54;6.40;;;4.03;;
49998;SDS011;68071;45.062;7.356;2023-07-29T01:06:12;4.60;;;3.40;;
49998;SDS011;68071;45.062;7.356;2023-07-29T01:09:26;4.25;;;3.80;;
49998;SDS011;68071;45.062;7.356;2023-07-29T01:12:54;5.60;;;4.45;;
49998;SDS011;68071;45.062;7.356;2023-07-29T01:16:26;4.72;;;4.00;;
49998;SDS011;68071;45.062;7.356;2023-07-29T01:22:57;4.82;;;3.90;;
49998;SDS011;68071;45.062;7.356;2023-07-29T01:26:01;6.03;;;4.18;;
49998;SDS011;68071;45.062;7.356;2023-07-29T01:29:06;4.57;;;4.18;;
49998;SDS011;68071;45.062;7.356;2023-07-29T01:32:11;5.40;;;4.35;;
49998;SDS011;68071;45.062;7.356;2023-07-29T01:35:29;4.13;;;3.72;;
49998;SDS011;68071;45.062;7.356;2023-07-29T01:38:40;4.65;;;3.72;;
49998;SDS011;68071;45.062;7.356;2023-07-29T01:41:46;5.10;;;3.90;;
49998;SDS011;68071;45.062;7.356;2023-07-29T01:47:56;7.63;;;4.32;;
49998;SDS011;68071;45.062;7.356;2023-07-29T01:51:00;4.80;;;3.85;;
49998;SDS011;68071;45.062;7.356;2023-07-29T01:54:05;5.43;;;4.25;;
49998;SDS011;68071;45.062;7.356;2023-07-29T01:57:08;5.03;;;4.18;;
49998;SDS011;68071;45.062;7.356;2023-07-29T02:00:14;7.63;;;4.03;;
49998;SDS011;68071;45.062;7.356;2023-07-29T02:03:19;4.57;;;4.13;;
49998;SDS011;68071;45.062;7.356;2023-07-29T02:06:23;5.10;;;3.95;;
49998;SDS011;68071;45.062;7.356;2023-07-29T02:09:27;5.93;;;4.87;;
49998;SDS011;68071;45.062;7.356;2023-07-29T02:12:33;5.75;;;4.70;;
49998;SDS011;68071;45.062;7.356;2023-07-29T02:18:42;6.47;;;4.43;;
49998;SDS011;68071;45.062;7.356;2023-07-29T02:21:46;7.47;;;4.05;;
49998;SDS011;68071;45.062;7.356;2023-07-29T02:24:50;5.43;;;4.72;;
49998;SDS011;68071;45.062;7.356;2023-07-29T02:27:54;5.38;;;4.72;;
49998;SDS011;68071;45.062;7.356;2023-07-29T02:31:19;7.72;;;4.38;;
49998;SDS011;68071;45.062;7.356;2023-07-29T02:34:24;7.80;;;4.63;;
49998;SDS011;68071;45.062;7.356;2023-07-29T02:37:28;5.35;;;4.63;;
49998;SDS011;68071;45.062;7.356;2023-07-29T02:40:32;5.72;;;4.35;;
49998;SDS011;68071;45.062;7.356;2023-07-29T02:43:36;5.00;;;4.35;;
49998;SDS011;68071;45.062;7.356;2023-07-29T02:46:41;5.80;;;4.50;;
49998;SDS011;68071;45.062;7.356;2023-07-29T02:49:45;5.35;;;4.68;;
49998;SDS011;68071;45.062;7.356;2023-07-29T02:52:49;5.32;;;4.82;;
49998;SDS011;68071;45.062;7.356;2023-07-29T02:55:53;6.55;;;4.32;;
49998;SDS011;68071;45.062;7.356;2023-07-29T02:58:58;5.63;;;4.20;;
49998;SDS011;68071;45.062;7.356;2023-07-29T03:02:02;4.72;;;4.25;;
49998;SDS011;68071;45.062;7.356;2023-07-29T03:05:06;5.82;;;4.50;;
49998;SDS011;68071;45.062;7.356;2023-07-29T03:08:10;5.50;;;4.45;;
49998;SDS011;68071;45.062;7.356;2023-07-29T03:11:15;4.75;;;4.35;;
49998;SDS011;68071;45.062;7.356;2023-07-29T03:14:20;5.93;;;4.40;;
49998;SDS011;68071;45.062;7.356;2023-07-29T03:17:24;5.15;;;4.53;;
49998;SDS011;68071;45.062;7.356;2023-07-29T03:20:28;5.40;;;4.40;;
49998;SDS011;68071;45.062;7.356;2023-07-29T03:23:32;6.68;;;4.75;;
49998;SDS011;68071;45.062;7.356;2023-07-29T03:26:37;5.38;;;4.35;;
49998;SDS011;68071;45.062;7.356;2023-07-29T03:29:41;5.22;;;4.47;;
49998;SDS011;68071;45.062;7.356;2023-07-29T03:32:45;5.60;;;4.43;;
49998;SDS011;68071;45.062;7.356;2023-07-29T03:35:50;6.35;;;4.65;;
49998;SDS011;68071;45.062;7.356;2023-07-29T03:38:53;5.93;;;4.90;;
49998;SDS011;68071;45.062;7.356;2023-07-29T03:41:58;5.32;;;4.60;;
49998;SDS011;68071;45.062;7.356;2023-07-29T03:45:02;6.03;;;4.30;;
49998;SDS011;68071;45.062;7.356;2023-07-29T03:48:06;6.55;;;4.70;;
49998;SDS011;68071;45.062;7.356;2023-07-29T03:51:10;5.03;;;4.00;;
49998;SDS011;68071;45.062;7.356;2023-07-29T03:54:14;5.20;;;4.70;;
49998;SDS011;68071;45.062;7.356;2023-07-29T03:57:18;5.53;;;4.80;;
49998;SDS011;68071;45.062;7.356;2023-07-29T04:00:22;5.80;;;4.50;;
49998;SDS011;68071;45.062;7.356;2023-07-29T04:03:26;5.65;;;4.72;;
49998;SDS011;68071;45.062;7.356;2023-07-29T04:06:31;6.90;;;4.60;;
49998;SDS011;68071;45.062;7.356;2023-07-29T04:09:36;5.30;;;4.80;;
49998;SDS011;68071;45.062;7.356;2023-07-29T04:12:40;6.60;;;4.72;;
49998;SDS011;68071;45.062;7.356;2023-07-29T04:15:44;4.97;;;4.47;;
49998;SDS011;68071;45.062;7.356;2023-07-29T04:18:48;5.47;;;4.57;;
49998;SDS011;68071;45.062;7.356;2023-07-29T04:21:52;5.28;;;4.78;;
49998;SDS011;68071;45.062;7.356;2023-07-29T04:24:56;6.10;;;4.85;;
49998;SDS011;68071;45.062;7.356;2023-07-29T04:28:00;6.57;;;4.88;;
49998;SDS011;68071;45.062;7.356;2023-07-29T04:31:07;5.43;;;4.30;;
49998;SDS011;68071;45.062;7.356;2023-07-29T04:34:10;5.85;;;4.90;;
49998;SDS011;68071;45.062;7.356;2023-07-29T04:37:16;5.43;;;4.85;;
49998;SDS011;68071;45.062;7.356;2023-07-29T04:40:20;8.52;;;5.55;;
49998;SDS011;68071;45.062;7.356;2023-07-29T04:43:27;4.78;;;4.38;;
49998;SDS011;68071;45.062;7.356;2023-07-29T04:46:35;4.57;;;3.90;;
49998;SDS011;68071;45.062;7.356;2023-07-29T04:49:40;4.68;;;4.28;;
49998;SDS011;68071;45.062;7.356;2023-07-29T04:52:43;5.38;;;4.28;;
49998;SDS011;68071;45.062;7.356;2023-07-29T04:55:47;5.40;;;4.65;;
49998;SDS011;68071;45.062;7.356;2023-07-29T04:58:51;5.97;;;4.53;;
49998;SDS011;68071;45.062;7.356;2023-07-29T05:01:56;5.93;;;5.32;;
49998;SDS011;68071;45.062;7.356;2023-07-29T05:05:00;6.93;;;4.80;;
49998;SDS011;68071;45.062;7.356;2023-07-29T05:08:04;5.35;;;4.85;;
49998;SDS011;68071;45.062;7.356;2023-07-29T05:11:08;7.25;;;4.80;;
49998;SDS011;68071;45.062;7.356;2023-07-29T05:14:13;5.63;;;4.90;;
49998;SDS011;68071;45.062;7.356;2023-07-29T05:17:19;6.97;;;5.10;;
49998;SDS011;68071;45.062;7.356;2023-07-29T05:20:23;5.88;;;4.40;;
49998;SDS011;68071;45.062;7.356;2023-07-29T05:23:27;5.22;;;4.00;;
49998;SDS011;68071;45.062;7.356;2023-07-29T05:26:31;5.57;;;5.03;;
49998;SDS011;68071;45.062;7.356;2023-07-29T05:29:34;5.82;;;4.70;;
49998;SDS011;68071;45.062;7.356;2023-07-29T05:32:39;6.22;;;4.95;;
49998;SDS011;68071;45.062;7.356;2023-07-29T05:35:44;5.68;;;5.15;;
49998;SDS011;68071;45.062;7.356;2023-07-29T05:38:51;6.97;;;5.63;;
49998;SDS011;68071;45.062;7.356;2023-07-29T05:41:55;6.53;;;5.80;;
49998;SDS011;68071;45.062;7.356;2023-07-29T05:45:00;6.25;;;5.43;;
49998;SDS011;68071;45.062;7.356;2023-07-29T05:48:04;5.65;;;5.15;;
49998;SDS011;68071;45.062;7.356;2023-07-29T05:51:08;7.53;;;5.40;;
49998;SDS011;68071;45.062;7.356;2023-07-29T05:54:13;6.85;;;5.03;;
49998;SDS011;68071;45.062;7.356;2023-07-29T05:57:17;5.30;;;4.80;;
49998;SDS011;68071;45.062;7.356;2023-07-29T06:00:21;6.80;;;5.30;;
49998;SDS011;68071;45.062;7.356;2023-07-29T06:03:25;5.45;;;4.95;;
49998;SDS011;68071;45.062;7.356;2023-07-29T06:06:29;5.30;;;4.80;;
49998;SDS011;68071;45.062;7.356;2023-07-29T06:09:33;5.88;;;5.38;;
49998;SDS011;68071;45.062;7.356;2023-07-29T06:12:37;5.57;;;4.57;;
49998;SDS011;68071;45.062;7.356;2023-07-29T06:15:41;7.60;;;4.90;;
49998;SDS011;68071;45.062;7.356;2023-07-29T06:18:45;5.57;;;4.90;;
49998;SDS011;68071;45.062;7.356;2023-07-29T06:21:50;5.80;;;3.80;;
49998;SDS011;68071;45.062;7.356;2023-07-29T06:24:54;4.82;;;4.22;;
49998;SDS011;68071;45.062;7.356;2023-07-29T06:27:57;6.15;;;4.32;;
49998;SDS011;68071;45.062;7.356;2023-07-29T06:31:02;6.23;;;4.33;;
49998;SDS011;68071;45.062;7.356;2023-07-29T06:34:06;4.40;;;3.53;;
49998;SDS011;68071;45.062;7.356;2023-07-29T06:37:10;5.22;;;4.10;;
49998;SDS011;68071;45.062;7.356;2023-07-29T06:40:14;5.55;;;4.13;;
49998;SDS011;68071;45.062;7.356;2023-07-29T06:43:18;6.73;;;4.30;;
49998;SDS011;68071;45.062;7.356;2023-07-29T06:46:22;5.03;;;4.30;;
49998;SDS011;68071;45.062;7.356;2023-07-29T06:49:26;5.13;;;3.53;;
49998;SDS011;68071;45.062;7.356;2023-07-29T06:52:30;5.45;;;3.90;;
49998;SDS011;68071;45.062;7.356;2023-07-29T06:55:35;6.00;;;3.53;;
49998;SDS011;68071;45.062;7.356;2023-07-29T06:58:39;4.85;;;3.80;;
49998;SDS011;68071;45.062;7.356;2023-07-29T07:01:43;5.25;;;3.38;;
49998;SDS011;68071;45.062;7.356;2023-07-29T07:04:47;5.68;;;3.80;;
49998;SDS011;68071;45.062;7.356;2023-07-29T07:07:51;4.47;;;3.75;;
49998;SDS011;68071;45.062;7.356;2023-07-29T07:10:55;5.75;;;3.58;;
49998;SDS011;68071;45.062;7.356;2023-07-29T07:13:59;4.25;;;3.50;;
49998;SDS011;68071;45.062;7.356;2023-07-29T07:17:04;5.78;;;3.83;;
49998;SDS011;68071;45.062;7.356;2023-07-29T07:20:08;4.25;;;3.50;;
49998;SDS011;68071;45.062;7.356;2023-07-29T07:23:12;6.57;;;3.87;;
49998;SDS011;68071;45.062;7.356;2023-07-29T07:26:17;4.83;;;4.33;;
49998;SDS011;68071;45.062;7.356;2023-07-29T07:29:21;4.20;;;3.80;;
49998;SDS011;68071;45.062;7.356;2023-07-29T07:32:25;6.10;;;4.32;;
49998;SDS011;68071;45.062;7.356;2023-07-29T07:35:30;4.82;;;4.32;;
49998;SDS011;68071;45.062;7.356;2023-07-29T07:38:34;5.00;;;3.80;;
49998;SDS011;68071;45.062;7.356;2023-07-29T07:41:38;7.30;;;4.63;;
49998;SDS011;68071;45.062;7.356;2023-07-29T07:44:45;6.78;;;4.55;;
49998;SDS011;68071;45.062;7.356;2023-07-29T07:47:51;6.35;;;4.63;;
49998;SDS011;68071;45.062;7.356;2023-07-29T07:50:56;4.55;;;4.15;;
49998;SDS011;68071;45.062;7.356;2023-07-29T07:54:00;6.03;;;4.10;;
49998;SDS011;68071;45.062;7.356;2023-07-29T07:57:04;5.38;;;3.83;;
49998;SDS011;68071;45.062;7.356;2023-07-29T08:00:09;4.53;;;3.50;;
49998;SDS011;68071;45.062;7.356;2023-07-29T08:03:17;4.82;;;3.72;;
49998;SDS011;68071;45.062;7.356;2023-07-29T08:06:21;5.55;;;4.10;;
49998;SDS011;68071;45.062;7.356;2023-07-29T08:09:25;5.57;;;3.53;;
49998;SDS011;68071;45.062;7.356;2023-07-29T08:12:30;5.10;;;3.28;;
49998;SDS011;68071;45.062;7.356;2023-07-29T08:15:34;5.13;;;3.65;;
49998;SDS011;68071;45.062;7.356;2023-07-29T08:18:37;4.95;;;3.60;;
49998;SDS011;68071;45.062;7.356;2023-07-29T08:21:41;6.88;;;3.92;;
49998;SDS011;68071;45.062;7.356;2023-07-29T08:24:45;6.25;;;3.95;;
49998;SDS011;68071;45.062;7.356;2023-07-29T08:27:50;4.25;;;3.88;;
49998;SDS011;68071;45.062;7.356;2023-07-29T08:30:53;4.72;;;3.92;;
49998;SDS011;68071;45.062;7.356;2023-07-29T08:33:58;5.65;;;4.13;;
49998;SDS011;68071;45.062;7.356;2023-07-29T08:37:02;4.13;;;3.50;;
49998;SDS011;68071;45.062;7.356;2023-07-29T08:40:06;6.32;;;3.78;;
49998;SDS011;68071;45.062;7.356;2023-07-29T08:43:11;4.28;;;3.83;;
49998;SDS011;68071;45.062;7.356;2023-07-29T08:46:19;5.18;;;3.95;;
49998;SDS011;68071;45.062;7.356;2023-07-29T08:49:23;5.93;;;4.13;;
49998;SDS011;68071;45.062;7.356;2023-07-29T08:52:29;5.32;;;3.65;;
49998;SDS011;68071;45.062;7.356;2023-07-29T08:55:35;4.88;;;4.43;;
49998;SDS011;68071;45.062;7.356;2023-07-29T08:58:40;5.40;;;4.40;;
49998;SDS011;68071;45.062;7.356;2023-07-29T09:01:45;6.32;;;4.07;;
49998;SDS011;68071;45.062;7.356;2023-07-29T09:04:50;5.72;;;4.47;;
49998;SDS011;68071;45.062;7.356;2023-07-29T09:07:54;6.38;;;4.63;;
49998;SDS011;68071;45.062;7.356;2023-07-29T09:10:59;7.15;;;4.22;;
49998;SDS011;68071;45.062;7.356;2023-07-29T09:14:03;4.72;;;3.88;;
49998;SDS011;68071;45.062;7.356;2023-07-29T09:17:08;7.28;;;4.60;;
49998;SDS011;68071;45.062;7.356;2023-07-29T09:20:13;5.65;;;4.22;;
49998;SDS011;68071;45.062;7.356;2023-07-29T09:23:18;8.10;;;4.80;;
49998;SDS011;68071;45.062;7.356;2023-07-29T09:26:21;4.75;;;3.70;;
49998;SDS011;68071;45.062;7.356;2023-07-29T09:29:29;6.38;;;4.45;;
49998;SDS011;68071;45.062;7.356;2023-07-29T09:32:33;4.63;;;3.88;;
49998;SDS011;68071;45.062;7.356;2023-07-29T09:35:37;6.72;;;4.25;;
49998;SDS011;68071;45.062;7.356;2023-07-29T09:38:42;5.38;;;4.18;;
49998;SDS011;68071;45.062;7.356;2023-07-29T09:41:47;6.32;;;4.70;;
49998;SDS011;68071;45.062;7.356;2023-07-29T09:44:53;4.75;;;3.83;;
49998;SDS011;68071;45.062;7.356;2023-07-29T09:47:57;6.07;;;4.40;;
49998;SDS011;68071;45.062;7.356;2023-07-29T09:51:09;6.25;;;4.65;;
49998;SDS011;68071;45.062;7.356;2023-07-29T09:54:17;7.40;;;4.67;;
49998;SDS011;68071;45.062;7.356;2023-07-29T09:57:21;7.40;;;4.75;;
49998;SDS011;68071;45.062;7.356;2023-07-29T10:00:25;7.57;;;4.65;;
49998;SDS011;68071;45.062;7.356;2023-07-29T10:03:29;8.10;;;4.55;;
49998;SDS011;68071;45.062;7.356;2023-07-29T10:06:35;7.07;;;4.72;;
49998;SDS011;68071;45.062;7.356;2023-07-29T10:09:40;6.57;;;4.55;;
49998;SDS011;68071;45.062;7.356;2023-07-29T10:12:46;5.32;;;4.40;;
49998;SDS011;68071;45.062;7.356;2023-07-29T10:15:50;5.07;;;4.40;;
49998;SDS011;68071;45.062;7.356;2023-07-29T10:18:54;7.45;;;5.32;;
49998;SDS011;68071;45.062;7.356;2023-07-29T10:22:01;9.65;;;6.88;;
49998;SDS011;68071;45.062;7.356;2023-07-29T10:25:07;6.28;;;4.32;;
49998;SDS011;68071;45.062;7.356;2023-07-29T10:28:12;5.60;;;4.13;;
49998;SDS011;68071;45.062;7.356;2023-07-29T10:31:19;7.05;;;4.57;;
49998;SDS011;68071;45.062;7.356;2023-07-29T10:34:26;5.50;;;4.28;;
49998;SDS011;68071;45.062;7.356;2023-07-29T10:37:31;6.38;;;4.13;;
49998;SDS011;68071;45.062;7.356;2023-07-29T10:40:57;7.37;;;4.03;;
49998;SDS011;68071;45.062;7.356;2023-07-29T10:44:04;6.25;;;4.35;;
49998;SDS011;68071;45.062;7.356;2023-07-29T10:47:26;5.80;;;3.97;;
49998;SDS011;68071;45.062;7.356;2023-07-29T10:50:31;5.28;;;4.15;;
49998;SDS011;68071;45.062;7.356;2023-07-29T10:53:35;6.63;;;4.07;;
49998;SDS011;68071;45.062;7.356;2023-07-29T10:56:41;6.05;;;4.40;;
49998;SDS011;68071;45.062;7.356;2023-07-29T10:59:54;6.88;;;3.83;;
49998;SDS011;68071;45.062;7.356;2023-07-29T11:03:00;5.95;;;3.60;;
49998;SDS011;68071;45.062;7.356;2023-07-29T11:06:05;5.13;;;4.00;;
49998;SDS011;68071;45.062;7.356;2023-07-29T11:09:38;5.28;;;3.95;;
49998;SDS011;68071;45.062;7.356;2023-07-29T11:12:49;7.07;;;4.40;;
49998;SDS011;68071;45.062;7.356;2023-07-29T11:15:55;6.22;;;4.00;;
49998;SDS011;68071;45.062;7.356;2023-07-29T11:19:02;6.75;;;4.63;;
49998;SDS011;68071;45.062;7.356;2023-07-29T11:22:07;5.78;;;3.67;;
49998;SDS011;68071;45.062;7.356;2023-07-29T11:25:12;5.82;;;4.38;;
49998;SDS011;68071;45.062;7.356;2023-07-29T11:28:18;4.13;;;3.55;;
49998;SDS011;68071;45.062;7.356;2023-07-29T11:31:22;6.40;;;4.47;;
49998;SDS011;68071;45.062;7.356;2023-07-29T11:34:32;5.40;;;4.68;;
49998;SDS011;68071;45.062;7.356;2023-07-29T11:37:36;7.25;;;5.45;;
49998;SDS011;68071;45.062;7.356;2023-07-29T11:40:41;5.47;;;4.95;;
49998;SDS011;68071;45.062;7.356;2023-07-29T11:43:45;5.87;;;5.23;;
49998;SDS011;68071;45.062;7.356;2023-07-29T11:46:49;6.50;;;4.75;;
49998;SDS011;68071;45.062;7.356;2023-07-29T11:49:52;6.95;;;4.60;;
49998;SDS011;68071;45.062;7.356;2023-07-29T11:52:57;7.35;;;5.18;;
49998;SDS011;68071;45.062;7.356;2023-07-29T11:56:01;7.57;;;5.15;;
49998;SDS011;68071;45.062;7.356;2023-07-29T11:59:07;7.18;;;4.93;;
49998;SDS011;68071;45.062;7.356;2023-07-29T12:02:12;4.70;;;4.20;;
49998;SDS011;68071;45.062;7.356;2023-07-29T12:05:18;6.38;;;4.80;;
49998;SDS011;68071;45.062;7.356;2023-07-29T12:08:25;7.63;;;4.63;;
49998;SDS011;68071;45.062;7.356;2023-07-29T12:11:30;5.88;;;4.75;;
49998;SDS011;68071;45.062;7.356;2023-07-29T12:14:34;8.65;;;5.63;;
49998;SDS011;68071;45.062;7.356;2023-07-29T12:17:42;5.97;;;4.93;;
49998;SDS011;68071;45.062;7.356;2023-07-29T12:20:45;6.95;;;4.82;;
49998;SDS011;68071;45.062;7.356;2023-07-29T12:23:50;6.70;;;5.20;;
49998;SDS011;68071;45.062;7.356;2023-07-29T12:26:55;5.22;;;4.72;;
49998;SDS011;68071;45.062;7.356;2023-07-29T12:30:00;7.43;;;4.68;;
49998;SDS011;68071;45.062;7.356;2023-07-29T12:33:08;6.90;;;5.00;;
49998;SDS011;68071;45.062;7.356;2023-07-29T12:36:12;5.20;;;4.70;;
49998;SDS011;68071;45.062;7.356;2023-07-29T12:39:19;7.18;;;5.55;;
49998;SDS011;68071;45.062;7.356;2023-07-29T12:42:24;5.57;;;5.00;;
49998;SDS011;68071;45.062;7.356;2023-07-29T12:45:34;6.75;;;4.95;;
49998;SDS011;68071;45.062;7.356;2023-07-29T12:48:39;8.75;;;5.30;;
49998;SDS011;68071;45.062;7.356;2023-07-29T12:51:43;7.13;;;5.28;;
49998;SDS011;68071;45.062;7.356;2023-07-29T12:54:47;5.83;;;5.33;;
49998;SDS011;68071;45.062;7.356;2023-07-29T12:57:51;6.77;;;5.00;;
49998;SDS011;68071;45.062;7.356;2023-07-29T13:00:55;9.15;;;5.25;;
49998;SDS011;68071;45.062;7.356;2023-07-29T13:03:59;6.88;;;5.80;;
49998;SDS011;68071;45.062;7.356;2023-07-29T13:07:03;7.60;;;5.10;;
49998;SDS011;68071;45.062;7.356;2023-07-29T13:10:12;7.25;;;5.72;;
49998;SDS011;68071;45.062;7.356;2023-07-29T13:13:17;6.47;;;5.32;;
49998;SDS011;68071;45.062;7.356;2023-07-29T13:16:21;5.80;;;5.30;;
49998;SDS011;68071;45.062;7.356;2023-07-29T13:19:25;5.70;;;4.82;;
49998;SDS011;68071;45.062;7.356;2023-07-29T13:22:29;6.17;;;4.53;;
49998;SDS011;68071;45.062;7.356;2023-07-29T13:25:33;5.50;;;5.00;;
49998;SDS011;68071;45.062;7.356;2023-07-29T13:28:37;6.33;;;5.13;;
49998;SDS011;68071;45.062;7.356;2023-07-29T13:31:41;6.35;;;4.97;;
49998;SDS011;68071;45.062;7.356;2023-07-29T13:34:45;5.77;;;4.93;;
49998;SDS011;68071;45.062;7.356;2023-07-29T13:37:48;8.35;;;4.38;;
49998;SDS011;68071;45.062;7.356;2023-07-29T13:40:53;6.68;;;4.32;;
49998;SDS011;68071;45.062;7.356;2023-07-29T13:43:57;6.77;;;4.67;;
49998;SDS011;68071;45.062;7.356;2023-07-29T13:47:01;5.57;;;4.57;;
49998;SDS011;68071;45.062;7.356;2023-07-29T13:50:05;4.97;;;4.32;;
49998;SDS011;68071;45.062;7.356;2023-07-29T13:53:11;6.20;;;4.90;;
49998;SDS011;68071;45.062;7.356;2023-07-29T13:56:15;7.97;;;5.10;;
49998;SDS011;68071;45.062;7.356;2023-07-29T13:59:19;7.60;;;4.77;;
49998;SDS011;68071;45.062;7.356;2023-07-29T14:02:23;7.90;;;5.03;;
49998;SDS011;68071;45.062;7.356;2023-07-29T14:05:29;7.72;;;4.80;;
49998;SDS011;68071;45.062;7.356;2023-07-29T14:08:33;5.75;;;4.07;;
49998;SDS011;68071;45.062;7.356;2023-07-29T14:11:39;4.72;;;4.22;;
49998;SDS011;68071;45.062;7.356;2023-07-29T14:14:43;6.10;;;4.78;;
49998;SDS011;68071;45.062;7.356;2023-07-29T14:17:47;8.32;;;5.43;;
49998;SDS011;68071;45.062;7.356;2023-07-29T14:20:51;5.07;;;4.55;;
49998;SDS011;68071;45.062;7.356;2023-07-29T14:23:55;5.20;;;4.20;;
49998;SDS011;68071;45.062;7.356;2023-07-29T14:26:59;9.07;;;5.43;;
49998;SDS011;68071;45.062;7.356;2023-07-29T14:30:04;9.52;;;5.63;;
49998;SDS011;68071;45.062;7.356;2023-07-29T14:33:08;6.05;;;4.50;;
49998;SDS011;68071;45.062;7.356;2023-07-29T14:36:13;4.70;;;4.25;;
49998;SDS011;68071;45.062;7.356;2023-07-29T14:39:17;4.82;;;4.03;;
49998;SDS011;68071;45.062;7.356;2023-07-29T14:42:21;5.37;;;4.00;;
49998;SDS011;68071;45.062;7.356;2023-07-29T14:45:24;8.02;;;4.82;;
49998;SDS011;68071;45.062;7.356;2023-07-29T14:48:29;4.53;;;4.13;;
49998;SDS011;68071;45.062;7.356;2023-07-29T14:51:33;6.38;;;4.35;;
49998;SDS011;68071;45.062;7.356;2023-07-29T14:54:38;5.28;;;4.00;;
49998;SDS011;68071;45.062;7.356;2023-07-29T14:57:42;6.23;;;4.33;;
49998;SDS011;68071;45.062;7.356;2023-07-29T15:00:46;5.47;;;4.28;;
49998;SDS011;68071;45.062;7.356;2023-07-29T15:03:49;6.30;;;4.03;;
49998;SDS011;68071;45.062;7.356;2023-07-29T15:06:53;5.13;;;4.13;;
49998;SDS011;68071;45.062;7.356;2023-07-29T15:13:02;6.83;;;3.90;;
49998;SDS011;68071;45.062;7.356;2023-07-29T15:16:06;7.32;;;4.18;;
49998;SDS011;68071;45.062;7.356;2023-07-29T15:19:10;6.27;;;3.70;;
49998;SDS011;68071;45.062;7.356;2023-07-29T15:22:14;6.45;;;3.65;;
49998;SDS011;68071;45.062;7.356;2023-07-29T15:25:18;4.32;;;3.00;;
49998;SDS011;68071;45.062;7.356;2023-07-29T15:28:22;6.18;;;3.70;;
49998;SDS011;68071;45.062;7.356;2023-07-29T15:31:25;6.28;;;3.70;;
49998;SDS011;68071;45.062;7.356;2023-07-29T15:34:30;5.10;;;3.72;;
49998;SDS011;68071;45.062;7.356;2023-07-29T15:37:35;5.88;;;3.78;;
49998;SDS011;68071;45.062;7.356;2023-07-29T15:40:39;5.38;;;3.40;;
49998;SDS011;68071;45.062;7.356;2023-07-29T15:43:43;3.97;;;3.25;;
49998;SDS011;68071;45.062;7.356;2023-07-29T15:46:47;5.80;;;3.93;;
49998;SDS011;68071;45.062;7.356;2023-07-29T15:49:51;5.75;;;3.90;;
49998;SDS011;68071;45.062;7.356;2023-07-29T15:52:55;5.82;;;3.65;;
49998;SDS011;68071;45.062;7.356;2023-07-29T15:56:00;6.40;;;3.90;;
49998;SDS011;68071;45.062;7.356;2023-07-29T15:59:04;4.07;;;3.38;;
49998;SDS011;68071;45.062;7.356;2023-07-29T16:02:08;4.45;;;3.40;;
49998;SDS011;68071;45.062;7.356;2023-07-29T16:05:12;7.40;;;3.30;;
49998;SDS011;68071;45.062;7.356;2023-07-29T16:08:16;6.90;;;3.63;;
49998;SDS011;68071;45.062;7.356;2023-07-29T16:11:20;6.00;;;3.50;;
49998;SDS011;68071;45.062;7.356;2023-07-29T16:14:23;5.60;;;3.95;;
49998;SDS011;68071;45.062;7.356;2023-07-29T16:17:28;5.72;;;3.58;;
49998;SDS011;68071;45.062;7.356;2023-07-29T16:20:32;5.88;;;4.28;;
49998;SDS011;68071;45.062;7.356;2023-07-29T16:23:37;5.35;;;4.28;;
49998;SDS011;68071;45.062;7.356;2023-07-29T16:26:41;6.07;;;4.07;;
49998;SDS011;68071;45.062;7.356;2023-07-29T16:29:45;7.10;;;4.07;;
49998;SDS011;68071;45.062;7.356;2023-07-29T16:32:49;5.60;;;4.18;;
49998;SDS011;68071;45.062;7.356;2023-07-29T16:35:53;5.68;;;4.35;;
49998;SDS011;68071;45.062;7.356;2023-07-29T16:38:57;5.93;;;4.82;;
49998;SDS011;68071;45.062;7.356;2023-07-29T16:42:01;7.80;;;4.30;;
49998;SDS011;68071;45.062;7.356;2023-07-29T16:45:05;5.10;;;4.07;;
49998;SDS011;68071;45.062;7.356;2023-07-29T16:48:09;5.45;;;4.68;;
49998;SDS011;68071;45.062;7.356;2023-07-29T16:51:13;9.47;;;4.43;;
49998;SDS011;68071;45.062;7.356;2023-07-29T16:54:18;7.83;;;4.60;;
49998;SDS011;68071;45.062;7.356;2023-07-29T17:00:26;5.22;;;4.60;;
49998;SDS011;68071;45.062;7.356;2023-07-29T17:03:31;6.07;;;4.43;;
49998;SDS011;68071;45.062;7.356;2023-07-29T17:06:35;6.63;;;4.72;;
49998;SDS011;68071;45.062;7.356;2023-07-29T17:09:39;6.13;;;5.07;;
49998;SDS011;68071;45.062;7.356;2023-07-29T17:12:43;5.68;;;4.40;;
49998;SDS011;68071;45.062;7.356;2023-07-29T17:15:46;5.07;;;4.57;;
49998;SDS011;68071;45.062;7.356;2023-07-29T17:18:51;8.18;;;4.82;;
49998;SDS011;68071;45.062;7.356;2023-07-29T17:21:55;6.20;;;4.53;;
49998;SDS011;68071;45.062;7.356;2023-07-29T17:24:59;5.95;;;4.45;;
49998;SDS011;68071;45.062;7.356;2023-07-29T17:28:03;5.82;;;4.85;;
49998;SDS011;68071;45.062;7.356;2023-07-29T17:31:08;5.32;;;4.75;;
49998;SDS011;68071;45.062;7.356;2023-07-29T17:34:12;5.95;;;5.30;;
49998;SDS011;68071;45.062;7.356;2023-07-29T17:37:15;6.78;;;5.32;;
49998;SDS011;68071;45.062;7.356;2023-07-29T17:40:19;7.60;;;5.10;;
49998;SDS011;68071;45.062;7.356;2023-07-29T17:43:23;6.93;;;5.38;;
49998;SDS011;68071;45.062;7.356;2023-07-29T17:46:27;6.95;;;5.55;;
49998;SDS011;68071;45.062;7.356;2023-07-29T17:49:31;5.13;;;4.70;;
49998;SDS011;68071;45.062;7.356;2023-07-29T17:52:35;6.15;;;5.18;;
49998;SDS011;68071;45.062;7.356;2023-07-29T17:55:40;6.07;;;5.28;;
49998;SDS011;68071;45.062;7.356;2023-07-29T17:58:44;6.05;;;5.13;;
49998;SDS011;68071;45.062;7.356;2023-07-29T18:01:48;7.28;;;5.80;;
49998;SDS011;68071;45.062;7.356;2023-07-29T18:04:54;6.90;;;5.97;;
49998;SDS011;68071;45.062;7.356;2023-07-29T18:11:01;7.40;;;6.70;;
49998;SDS011;68071;45.062;7.356;2023-07-29T18:14:06;8.82;;;6.30;;
49998;SDS011;68071;45.062;7.356;2023-07-29T18:17:10;7.95;;;6.93;;
49998;SDS011;68071;45.062;7.356;2023-07-29T18:20:14;6.10;;;5.47;;
49998;SDS011;68071;45.062;7.356;2023-07-29T18:23:18;8.32;;;6.25;;
49998;SDS011;68071;45.062;7.356;2023-07-29T18:26:22;8.13;;;6.28;;
49998;SDS011;68071;45.062;7.356;2023-07-29T18:29:27;6.93;;;6.35;;
49998;SDS011;68071;45.062;7.356;2023-07-29T18:32:31;7.03;;;6.20;;
49998;SDS011;68071;45.062;7.356;2023-07-29T18:35:39;8.63;;;6.53;;
49998;SDS011;68071;45.062;7.356;2023-07-29T18:38:43;7.68;;;5.90;;
49998;SDS011;68071;45.062;7.356;2023-07-29T18:41:47;8.15;;;5.57;;
49998;SDS011;68071;45.062;7.356;2023-07-29T18:44:51;6.60;;;5.97;;
49998;SDS011;68071;45.062;7.356;2023-07-29T18:47:55;9.07;;;6.47;;
49998;SDS011;68071;45.062;7.356;2023-07-29T18:50:59;7.35;;;6.10;;
49998;SDS011;68071;45.062;7.356;2023-07-29T18:54:03;8.57;;;6.50;;